Dunglen, Ohio
Current Conditions -  °F | °C
As of 10:53 PM on Saturday 24 Jan 2015 (Local Time) from KHLG Reporting Station
Haze Haze  
Wind Chill: -5°   Ceiling: 800
Heat Index:   Visibility: 5mi
Dew Point: -2°   Wind: 12mph
Humidity: 88%   Direction: 250°WSW
Pressure: 29.71"   Gusts: NA
Location:  40.2215°N, 80.8189°W
Report Text: KHLG 250353Z 25010KT 5SM BR OVC008 00/M02 A2971 RMK AO2 CIG 005V010 SLP077 T00001017
Loading
Personal Weather Stations






























Interactive Weather Map New forecast layout! Learn more

10-Day Weather Forecast

Advertisements
Track Severe Weather on mobile